Onward, Mississippi
Current Conditions -  °F | °C
As of 5:53 AM on Friday 28 Nov 2014 (Local Time) from KTVR Reporting Station
Clear Clear  
Wind Chill: 28°   Ceiling: Unl
Heat Index: 28°   Visibility: 8mi
Dew Point: 26°   Wind: 3mph
Humidity: 92%   Direction: 110°ESE
Pressure: 30.43"   Gusts: NA
Location:  32.8112°N, 90.8327°W
Report Text: KTVR 281153Z AUTO 11003KT 8SM CLR M02/M03 A3043 RMK AO2 SLP314 T10221033 11011 21033 58002
Loading
Personal Weather Stations






























Interactive Weather Map New forecast layout! Learn more

10-Day Weather Forecast

Advertisements
Track Severe Weather on mobile